Date,TemperatureHighF,TemperatureAvgF,TemperatureLowF,DewpointHighF,DewpointAvgF,DewpointLowF,HumidityHigh,HumidityAvg,HumidityLow,PressureMaxIn,PressureMinIn,WindSpeedMaxMPH,WindSpeedAvgMPH,GustSpeedMaxMPH,PrecipitationSumIn
2013-1-1,41,38,30,41,37,27,97,95,91,30.22,30.00,8,1,8,0.12
2013-1-2,34,29,24,27,24,22,92,82,61,30.30,30.20,4,0,4,0.00
2013-1-3,45,32,23,31,26,21,94,81,55,30.44,30.27,5,0,5,0.00
2013-1-4,48,35,25,34,28,24,96,79,49,30.51,30.40,6,0,6,0.00
2013-1-5,46,38,29,38,32,26,94,79,60,30.42,30.26,7,0,7,0.00
2013-1-6,51,40,31,39,35,28,97,83,55,30.40,30.23,9,1,9,0.00
2013-1-7,52,37,26,31,27,24,92,70,42,30.45,30.21,8,1,8,0.00
2013-1-8,58,45,30,41,35,26,85,68,49,30.28,30.16,6,0,6,0.00
2013-1-9,55,53,50,54,51,41,97,94,73,30.36,30.21,6,1,6,1.27
2013-1-10,68,61,54,64,60,53,100,95,87,30.28,29.88,18,3,18,0.74
2013-1-11,67,60,53,60,54,49,96,81,55,30.03,29.92,13,2,13,0.00
2013-1-12,71,68,62,68,65,60,98,92,85,29.94,29.71,14,2,14,0.14
2013-1-13,70,41,31,66,40,28,96,94,83,30.29,29.69,11,2,11,3.21
2013-1-14,31,28,27,29,25,23,91,87,82,30.43,30.28,10,1,10,0.00
2013-1-15,31,29,26,30,27,23,96,92,88,30.30,30.08,7,1,7,0.00
2013-1-16,33,31,30,32,30,28,100,94,91,30.20,30.07,3,0,3,0.07
2013-1-17,48,37,31,39,33,28,96,85,69,30.49,30.13,9,1,9,0.15
2013-1-18,53,38,26,34,28,25,96,71,36,30.58,30.35,5,0,5,0.00
2013-1-19,59,47,34,38,34,29,85,62,37,30.35,30.16,15,2,15,0.00
2013-1-20,60,46,37,38,33,26,85,63,34,30.28,30.16,6,1,6,0.00
2013-1-21,43,34,26,28,21,17,78,61,38,30.36,30.18,8,1,8,0.00
2013-1-22,39,31,24,21,18,12,85,60,41,30.45,30.33,6,1,6,0.00
2013-1-23,56,40,26,39,30,18,83,67,51,30.36,30.17,7,0,7,0.00
2013-1-24,41,38,33,38,24,19,90,60,44,30.46,30.21,8,2,8,0.00
2013-1-25,46,38,32,43,33,24,95,82,53,30.26,30.03,6,1,8,0.10
2013-1-26,55,41,30,38,33,28,97,76,46,30.35,30.25,5,0,5,0.01
2013-1-27,64,54,45,54,45,35,84,72,62,30.27,30.10,13,2,13,0.00
2013-1-28,73,63,57,62,57,53,92,82,67,30.16,30.03,16,2,16,0.04
2013-1-29,75,68,60,65,61,57,92,79,63,30.05,29.41,17,3,17,0.14
2013-2-1,28,27,27,19,18,16,69,67,65,30.33,30.32,2,0,2,0.00
2013-2-2,51,38,26,36,29,18,83,70,51,30.32,30.14,8,1,8,0.00
2013-2-3,55,45,38,36,33,29,83,66,38,30.19,30.09,14,2,14,0.00
2013-2-4,48,47,46,45,44,44,94,91,89,29.94,29.93,5,0,5,0.09
2013-2-5,65,50,40,52,45,38,100,82,52,30.06,29.92,7,1,7,0.00
2013-2-6,60,50,39,44,41,37,97,73,50,30.22,30.05,7,1,7,0.00
2013-2-7,68,57,45,55,48,36,95,71,57,30.05,29.87,8,1,8,0.34
2013-2-8,56,43,34,55,39,31,96,86,72,30.32,29.89,11,2,11,0.23
2013-2-9,50,41,30,41,34,28,94,78,59,30.35,30.03,6,1,6,0.01
2013-2-10,60,55,47,58,49,39,96,82,59,30.04,29.74,15,3,15,0.66
2013-2-11,58,50,44,53,36,28,84,59,33,30.20,29.94,8,1,8,0.00
2013-2-12,51,46,38,42,38,34,91,73,55,30.16,29.80,7,1,7,0.02
2013-2-13,45,41,37,42,38,35,95,91,82,30.02,29.78,8,1,8,0.04
2013-2-14,63,48,35,42,37,33,96,70,35,30.06,29.99,14,1,14,0.00
2013-2-15,57,46,37,40,33,25,84,63,35,30.20,30.05,9,1,9,0.00
2013-2-16,41,34,28,26,22,16,80,62,40,30.28,30.19,8,1,8,0.00
2013-2-17,56,42,30,32,27,22,78,56,35,30.27,30.07,10,2,10,0.00
2013-2-18,61,51,43,52,44,32,95,76,56,30.09,29.74,22,3,22,1.02
2013-2-19,50,42,34,42,29,21,84,63,39,30.28,29.95,13,2,13,0.00
2013-2-20,35,32,30,27,21,16,83,62,50,30.37,30.19,7,1,7,0.00
2013-2-21,43,37,32,42,32,24,97,84,61,30.21,29.76,11,2,11,1.10
2013-2-22,50,41,36,41,38,32,97,90,69,30.09,29.87,7,1,7,0.00
2013-2-23,52,38,29,35,30,28,94,76,45,30.08,29.96,6,1,6,0.00
2013-2-24,59,44,29,35,31,27,95,65,38,30.13,29.92,7,1,7,0.00
2013-2-25,62,51,41,53,39,28,96,63,35,29.93,29.30,11,3,11,0.65
2013-2-26,54,53,52,52,52,50,96,95,93,29.35,29.31,5,2,5,0.00
2013-2-28,42,40,36,33,31,29,79,70,62,30.11,30.02,8,2,8,0.00
2013-3-1,38,35,32,31,30,29,90,80,70,30.16,30.08,7,2,7,0.00
2013-3-2,35,32,29,30,27,22,93,82,66,30.26,30.13,8,1,8,0.03
2013-3-3,48,36,24,27,24,21,94,64,36,30.24,30.07,10,1,10,0.00
2013-3-4,69,53,35,49,34,26,73,51,29,30.08,29.74,15,2,15,0.00
2013-3-5,63,49,36,57,40,25,93,72,48,30.17,29.74,14,3,14,0.26
2013-3-6,47,38,33,31,27,24,82,65,51,30.37,30.17,10,2,10,0.01
2013-3-7,55,41,30,35,31,26,90,69,44,30.41,30.29,6,1,6,0.00
2013-3-8,65,48,33,35,30,25,85,53,25,30.40,30.17,7,1,7,0.00
2013-3-9,71,59,50,41,36,26,61,42,26,30.17,29.92,11,2,11,0.00
2013-3-10,66,58,52,57,50,40,97,77,45,29.94,29.72,16,3,16,0.91
2013-3-11,52,42,35,49,36,32,92,79,60,30.04,29.81,15,2,15,0.00
2013-3-12,57,42,29,35,30,24,96,66,32,30.22,30.03,7,1,7,0.00
2013-3-13,51,42,35,34,28,24,73,56,40,30.41,30.22,11,2,11,0.00
2013-3-14,64,46,29,37,30,24,88,58,30,30.43,30.16,13,1,13,0.00
2013-3-15,79,63,47,53,46,36,72,54,39,30.16,29.86,19,2,19,0.00
2013-3-16,78,67,57,56,52,46,76,60,46,29.90,29.80,21,3,21,0.00
2013-3-17,66,56,49,56,49,44,87,78,64,29.91,29.66,8,1,8,0.00
2013-3-18,67,66,66,59,58,56,77,73,70,29.68,29.64,9,2,9,0.00
2013-3-20,45,41,37,18,16,14,42,36,32,30.11,30.08,6,1,6,0.00
2013-3-21,46,38,28,33,21,15,89,53,31,30.13,29.96,5,0,5,0.02
2013-3-22,45,41,34,44,39,31,96,94,85,30.01,29.88,6,1,6,0.25
2013-3-23,56,49,45,51,47,43,96,91,80,29.93,29.68,7,1,7,0.01
2013-3-24,50,45,36,49,40,28,97,85,67,29.94,29.51,19,3,19,0.03
2013-3-25,40,36,33,29,26,23,77,67,58,30.25,29.94,13,4,13,0.00
2013-3-26,48,38,30,31,27,25,84,65,45,30.37,30.24,8,2,8,0.01
2013-3-27,57,43,28,34,29,25,91,61,36,30.42,30.30,9,1,9,0.12
2013-3-28,69,53,36,38,34,30,86,53,27,30.36,30.21,8,1,8,0.00
2013-3-29,63,54,48,53,45,35,96,75,39,30.27,30.15,13,0,13,0.08
2013-3-30,57,53,48,57,52,47,98,97,96,30.19,29.92,5,0,5,0.30
2013-3-31,62,57,51,58,55,50,98,92,74,29.96,29.86,7,0,7,0.02
2013-4-1,69,55,45,50,45,40,98,72,44,30.12,29.92,7,1,7,0.00
2013-4-2,52,45,40,41,34,28,91,64,46,30.27,30.10,6,1,6,0.06
2013-4-3,52,47,41,35,30,25,79,53,38,30.24,30.12,7,2,7,0.02
2013-4-4,49,44,41,45,41,30,96,89,50,30.13,29.98,5,1,5,0.07
2013-4-5,70,54,41,46,41,33,98,67,30,30.17,30.04,6,0,6,0.06
2013-4-6,76,61,44,46,41,34,89,53,25,30.10,29.90,14,1,14,0.02
2013-4-7,71,63,57,57,52,43,81,68,55,30.02,29.89,13,1,13,0.00
2013-4-8,80,68,57,61,57,51,86,68,47,29.98,29.84,17,1,17,0.00
2013-4-9,83,73,64,68,64,57,88,74,57,29.97,29.84,12,2,12,0.00
2013-4-10,86,77,70,69,66,64,88,70,51,29.92,29.64,11,2,11,0.01
2013-4-11,48,46,44,47,45,42,96,94,89,29.80,29.64,5,0,5,0.14
2013-4-12,68,54,40,48,44,39,98,73,43,30.00,29.80,10,1,10,0.43
2013-4-13,73,58,43,48,42,38,82,59,30,30.11,29.91,5,0,5,0.01
2013-4-14,72,61,53,59,52,44,84,72,61,29.92,29.73,11,1,11,0.00
2013-4-15,82,68,55,65,59,53,94,75,50,29.92,29.80,8,1,8,0.00
2013-4-16,86,76,69,73,69,63,91,79,59,30.02,29.89,13,1,13,0.00
2013-4-17,87,76,68,72,69,66,96,78,54,30.05,29.82,10,1,10,0.00
2013-4-18,79,70,46,68,62,44,95,78,56,29.84,29.59,15,1,15,2.12
2013-4-19,55,46,43,44,37,32,94,71,47,30.14,29.81,9,1,9,0.01
2013-4-20,70,54,40,46,40,34,98,65,32,30.26,30.14,8,0,8,0.00
2013-4-21,71,58,46,45,40,36,78,55,31,30.34,30.18,6,0,6,0.00
2013-4-22,76,61,47,53,47,39,83,61,39,30.20,30.00,7,0,7,0.00
2013-4-23,75,65,55,63,58,50,93,80,63,30.05,29.88,15,0,15,0.05
2013-4-24,67,49,42,63,45,40,95,86,66,30.29,29.85,5,0,5,0.56
2013-4-25,69,52,38,47,42,36,97,71,36,30.40,30.28,4,0,4,0.00
2013-4-26,66,55,48,52,48,43,96,79,48,30.43,30.21,5,0,5,0.22
2013-4-27,70,59,52,68,58,50,98,96,89,30.23,29.83,6,0,6,1.03
2013-4-28,64,59,53,59,56,52,97,91,74,29.98,29.91,4,0,4,0.00
2013-4-29,80,63,50,63,56,49,98,79,46,30.01,29.86,5,0,5,0.00
2013-4-30,84,68,55,63,57,52,92,70,41,29.95,29.87,8,0,8,0.00
2013-5-1,81,69,61,68,62,55,89,78,61,30.03,29.92,7,0,7,0.00
2013-5-2,70,65,62,65,61,58,96,87,74,30.09,29.98,5,0,5,0.05
2013-5-3,63,49,38,62,48,37,97,96,94,30.00,29.87,10,0,10,1.58
2013-5-4,55,44,36,48,42,35,100,90,63,29.97,29.89,7,0,7,0.11
2013-5-5,62,52,46,52,48,45,98,88,62,29.93,29.86,7,0,7,0.28
2013-5-6,61,57,53,58,55,52,97,94,83,29.94,29.85,4,0,4,0.05
2013-5-7,74,63,53,64,57,52,100,84,58,30.01,29.92,5,0,5,0.00
2013-5-8,82,68,54,64,58,53,97,75,45,30.07,29.98,7,0,7,0.00
2013-5-9,82,70,59,66,62,57,94,76,49,30.06,29.92,14,1,14,0.01
2013-5-10,72,68,64,69,65,63,96,91,81,29.93,29.83,13,0,13,1.36
2013-5-11,74,65,59,64,59,53,97,81,53,30.07,29.91,6,0,6,0.02
2013-5-12,68,58,49,54,41,33,80,56,31,30.22,30.06,6,0,6,0.00
2013-5-13,76,60,46,56,48,42,91,67,38,30.27,30.11,9,0,9,0.00
2013-5-14,87,72,58,66,57,52,86,61,40,30.11,29.98,12,1,12,0.00
2013-5-15,85,75,67,61,55,46,70,51,31,30.09,29.92,13,1,13,0.00
2013-5-16,77,69,64,68,63,59,96,81,64,29.99,29.88,6,0,6,0.04
2013-5-17,76,69,65,72,66,63,97,92,80,29.93,29.86,4,0,4,0.26
2013-5-18,84,74,65,77,71,64,98,89,74,29.97,29.88,7,0,7,0.00
2013-5-19,88,79,72,73,70,66,96,77,51,29.95,29.83,10,0,10,0.00
2013-5-20,88,79,73,75,71,70,91,77,60,29.92,29.79,13,1,13,0.00
2013-5-21,79,69,64,75,67,63,98,94,80,29.98,29.75,6,0,6,3.37
2013-5-22,80,69,64,69,65,63,98,87,63,29.88,29.72,9,0,9,0.10
2013-5-23,80,71,63,67,63,59,95,78,57,30.10,29.88,7,0,7,0.00
2013-5-24,74,64,56,59,54,50,86,71,47,30.29,30.10,4,0,4,0.00
2013-5-25,78,65,53,63,55,50,91,71,47,30.30,30.13,7,0,7,0.00
2013-5-26,85,71,58,65,59,55,93,69,41,30.18,30.05,7,0,7,0.00
2013-5-27,85,74,63,72,64,58,89,73,49,30.07,29.93,11,0,11,0.00
2013-5-28,87,77,71,71,67,61,86,71,48,30.02,29.92,11,0,11,0.00
2013-5-29,87,76,66,72,66,60,86,71,44,30.01,29.89,9,0,9,0.00
2013-5-30,82,76,70,76,70,67,95,84,70,30.00,29.87,11,0,11,0.29
2013-5-31,82,74,65,77,72,63,98,92,79,30.00,29.80,9,0,9,2.06
2013-6-1,80,72,68,74,70,65,97,93,70,29.95,29.82,13,0,13,0.22
2013-6-2,68,68,68,67,67,67,97,97,97,29.92,29.89,0,0,0,0.00
2013-6-7,76,70,67,62,61,60,80,72,58,29.87,29.81,0,0,0,0.00
2013-6-8,82,71,60,67,62,56,95,74,46,29.97,29.85,8,0,8,0.00
2013-6-9,88,74,66,74,67,60,92,79,56,29.96,29.78,10,0,10,0.05
2013-6-10,88,82,77,72,70,69,77,68,54,29.89,29.83,4,0,4,0.00
2013-6-11,96,83,72,77,72,69,93,73,47,29.99,29.89,7,0,7,0.00
2013-6-12,95,84,73,80,74,71,94,74,51,30.01,29.86,10,0,10,0.00
2013-6-13,92,83,72,78,72,66,81,70,49,29.92,29.85,9,0,9,0.00
2013-6-14,86,75,67,67,64,61,93,71,47,30.02,29.91,4,0,4,0.00
2013-6-15,88,76,65,73,66,62,92,74,50,30.05,29.93,4,0,4,0.00
2013-6-16,86,77,70,76,72,67,92,84,68,30.01,29.91,4,0,4,0.00
2013-6-17,80,74,72,75,72,69,96,92,75,29.95,29.81,10,0,10,0.37
2013-6-18,83,74,68,74,70,67,97,90,71,29.95,29.81,3,0,3,0.00
2013-6-19,88,74,68,76,70,66,96,87,60,30.01,29.92,4,0,4,0.04
2013-6-20,90,78,67,77,70,66,96,80,53,30.10,30.00,5,0,5,0.01
2013-6-21,89,79,70,77,72,68,94,79,59,30.14,30.03,5,0,5,0.00
2013-6-22,89,79,70,77,72,68,94,79,56,30.11,29.98,5,0,5,0.00
2013-6-23,88,78,71,78,71,67,92,80,58,30.07,29.97,5,0,5,0.00
2013-6-24,91,80,72,79,74,70,95,82,57,30.09,29.97,7,0,7,0.00
2013-6-25,90,82,74,78,73,70,94,77,57,30.04,29.89,9,0,9,0.00
2013-6-26,92,83,73,76,72,68,93,72,48,29.95,29.81,12,1,12,0.00
2013-6-27,93,84,80,79,75,72,82,75,60,29.88,29.83,10,0,10,0.00
2013-6-28,88,81,74,78,74,71,90,81,67,29.85,29.67,6,0,6,1.07
2013-6-29,87,77,69,72,67,60,94,72,44,29.74,29.65,7,0,7,0.00
2013-6-30,76,71,66,68,65,62,91,81,70,29.80,29.68,4,0,4,0.00
2013-7-1,80,71,66,70,66,62,96,84,65,29.91,29.79,5,0,5,0.03
2013-7-2,82,71,63,70,65,61,96,80,57,30.02,29.89,5,0,5,0.00
2013-7-3,82,71,62,71,65,61,96,82,60,30.08,29.99,4,0,4,0.00
2013-7-4,87,74,66,74,69,63,94,83,60,30.02,29.92,3,0,3,0.00
2013-7-5,85,74,67,75,70,64,96,86,66,30.05,29.93,6,0,6,0.00
2013-7-6,86,76,66,75,70,63,95,83,61,30.04,29.93,4,0,4,0.00
2013-7-7,88,78,70,78,73,69,96,84,62,30.06,29.99,5,0,5,0.00
2013-7-8,89,79,72,79,74,70,96,85,66,30.11,30.02,4,0,4,0.00
2013-7-9,94,82,74,78,74,72,96,78,50,30.09,29.96,9,0,9,0.00
2013-7-10,91,83,76,81,76,72,90,79,64,30.01,29.85,7,0,7,0.00
2013-7-11,92,82,74,80,73,64,93,76,54,29.94,29.86,4,0,4,0.00
2013-7-12,87,76,67,70,65,61,84,69,50,30.00,29.92,5,0,5,0.00
2013-7-13,86,74,64,69,64,61,90,71,48,30.01,29.92,5,0,5,0.00
2013-7-14,87,76,68,76,70,64,94,82,65,30.05,29.94,5,0,5,0.00
2013-7-15,88,78,72,78,74,70,95,86,65,30.15,30.04,10,0,10,0.03
2013-7-18,72,72,72,71,71,71,97,97,97,30.04,30.03,0,0,0,0.91
2013-7-19,90,78,71,79,73,70,98,87,61,30.05,29.90,7,0,7,0.00
2013-7-20,90,80,72,80,74,70,96,81,58,29.94,29.80,8,0,8,0.00
2013-7-21,91,81,73,78,74,71,97,82,55,29.93,29.84,3,0,9,0.02
2013-7-22,80,78,72,74,73,68,90,86,81,29.93,29.82,13,1,13,0.55
2013-7-25,79,73,68,69,66,65,91,80,68,30.04,30.01,1,0,1,0.00
2013-7-26,82,71,63,71,67,61,96,86,57,30.05,29.92,3,0,3,0.00
2013-7-27,85,76,70,75,70,68,95,83,63,29.97,29.86,5,0,5,0.00
2013-7-28,80,71,66,68,65,62,89,81,59,30.04,29.92,3,0,3,0.00
2013-7-29,86,74,66,74,68,64,92,81,59,30.13,30.03,3,0,3,0.00
2013-7-30,80,75,70,77,72,67,96,91,86,30.09,29.98,2,0,2,0.08
2013-7-31,86,78,74,80,75,72,97,93,78,30.01,29.88,5,0,5,0.35
2013-8-1,85,77,72,77,73,69,97,86,67,30.02,29.93,3,0,4,0.00
2013-8-2,87,76,67,77,71,66,97,86,63,30.01,29.92,4,0,4,0.00
2013-8-3,80,75,72,76,72,70,96,92,83,30.04,29.90,4,0,4,0.06
2013-8-4,87,77,70,78,73,69,98,88,71,30.08,30.01,2,0,2,0.00
2013-8-5,76,74,71,76,72,69,98,94,86,30.03,29.87,2,0,2,0.58
2013-8-6,81,77,73,79,75,73,98,96,89,29.95,29.84,3,0,3,0.08
2013-8-7,88,80,74,80,76,73,97,89,65,29.92,29.83,4,0,4,0.00
2013-8-8,92,82,77,83,78,75,97,88,66,29.92,29.82,5,0,5,0.00
2013-8-9,92,82,75,82,77,74,96,85,64,29.98,29.88,6,0,6,0.00
2013-8-10,86,79,75,79,75,73,96,89,73,30.11,29.96,3,0,3,0.08
2013-8-11,84,77,73,80,75,72,97,95,87,30.12,30.00,5,0,5,0.33
2013-8-12,91,80,73,82,76,72,98,89,70,30.03,29.89,7,0,7,0.40
2013-8-13,83,76,72,77,73,69,98,91,78,29.98,29.89,4,0,4,0.00
2013-8-14,77,71,64,70,63,58,91,78,60,30.06,29.95,4,0,4,0.00
2013-8-15,79,68,58,66,60,55,92,76,54,30.06,29.98,4,0,4,0.00
2013-8-16,79,71,63,72,66,60,92,86,74,30.03,29.96,3,0,3,0.00
2013-8-17,80,72,67,74,68,66,96,90,77,30.06,29.98,3,0,3,0.05
2013-8-18,83,72,66,74,69,64,97,90,69,30.10,30.01,4,0,4,0.00
2013-8-19,86,74,66,76,70,65,97,86,63,30.08,29.98,3,0,3,0.00
2013-8-20,88,77,69,78,72,68,97,87,65,30.07,29.99,2,0,2,0.00
2013-8-21,89,79,70,79,73,69,97,84,60,30.11,30.01,3,0,3,0.00
2013-8-22,91,80,73,80,75,72,97,84,61,30.10,29.97,4,0,4,0.00
2013-8-23,91,80,71,78,74,70,96,84,63,30.05,29.95,3,0,3,0.00
2013-8-24,91,80,72,79,74,70,95,83,61,30.11,30.01,4,0,4,0.00
2013-8-25,87,78,73,78,74,72,94,87,67,30.23,30.11,6,0,6,0.00
2013-8-26,89,78,70,75,72,69,96,81,58,30.23,30.09,6,0,6,0.00
2013-8-27,90,78,68,74,69,66,93,77,51,30.12,30.00,5,0,5,0.00
2013-8-28,91,79,69,74,70,67,94,77,54,30.06,29.98,7,0,7,0.00
2013-8-29,94,81,71,77,73,69,94,77,49,30.05,29.94,5,0,5,0.00
2013-8-30,95,82,73,77,74,72,95,77,51,29.98,29.85,5,0,5,0.00
2013-8-31,96,84,74,79,74,72,92,75,50,29.89,29.78,6,0,6,0.00
2013-9-1,85,78,73,78,73,70,96,87,72,29.91,29.77,8,0,8,0.69
2013-9-2,89,78,73,79,74,72,97,91,68,29.89,29.79,9,0,9,0.13
2013-9-3,86,76,68,73,69,64,97,81,53,30.00,29.88,4,0,4,0.00
2013-9-4,85,74,65,72,67,63,95,81,57,30.10,29.98,4,0,4,0.00
2013-9-5,88,74,65,73,67,62,94,79,52,30.13,30.06,4,0,4,0.00
2013-9-6,89,76,68,74,68,65,91,77,49,30.12,30.00,3,0,3,0.00
2013-9-7,93,78,67,75,70,65,94,78,48,30.05,29.92,5,0,5,0.00
2013-9-8,96,81,69,76,72,67,94,75,45,29.96,29.85,5,0,5,0.00
2013-9-9,90,80,73,80,74,70,96,84,63,30.00,29.90,8,0,8,0.10
2013-9-10,95,78,72,79,73,70,97,86,50,30.09,29.99,9,0,9,0.74
2013-9-11,90,79,72,80,74,71,98,87,60,30.13,30.02,4,0,4,0.00
2013-9-12,84,77,73,76,72,70,92,85,76,29.93,29.90,2,0,2,0.00
2013-9-13,82,73,64,71,63,56,93,72,45,30.00,29.92,5,0,5,0.00
2013-9-14,78,65,56,58,55,52,89,71,45,30.08,29.99,5,0,5,0.00
2013-9-15,85,68,55,63,58,52,94,72,38,30.09,30.01,6,0,6,0.00
2013-9-16,87,72,60,69,63,58,92,75,43,30.13,30.04,2,0,4,0.00
2013-9-17,89,76,66,71,68,64,94,77,48,30.13,30.00,4,0,4,0.00
2013-9-18,86,77,70,76,71,67,94,83,67,30.07,29.98,7,0,7,0.00
2013-9-19,90,77,69,75,70,68,96,80,56,30.06,29.91,7,0,7,0.00
2013-9-20,76,72,70,73,70,67,97,92,80,29.94,29.79,4,0,4,2.03
2013-9-21,76,68,61,69,62,57,97,83,55,29.89,29.78,8,0,8,0.04
2013-9-22,78,65,57,62,57,53,92,77,50,29.94,29.84,4,0,4,0.00
2013-9-23,82,68,56,66,60,53,91,78,52,29.94,29.84,5,0,5,0.00
2013-9-24,74,69,64,73,68,61,97,95,88,29.90,29.77,4,0,4,1.21
2013-9-25,83,74,69,74,70,68,98,88,61,29.81,29.74,6,0,6,0.00
2013-9-26,86,73,66,74,68,65,97,86,60,29.96,29.80,4,0,4,0.00
2013-9-27,86,72,64,73,66,63,97,83,53,30.06,29.96,6,0,6,0.00
2013-9-28,82,70,62,68,63,60,95,80,53,30.10,29.98,7,0,7,0.00
2013-9-29,68,66,64,66,64,61,97,93,82,30.02,29.93,4,0,4,0.10
2013-9-30,71,68,65,70,67,64,98,97,95,29.96,29.90,4,0,4,0.07
2013-10-1,83,72,67,76,70,66,97,91,72,30.03,29.93,3,0,7,0.00
2013-10-2,84,74,68,73,69,67,97,88,61,30.08,29.99,7,0,7,0.00
2013-10-3,86,74,67,75,70,65,97,88,64,30.03,29.91,7,0,7,0.00
2013-10-4,83,74,69,76,71,68,97,91,76,30.03,29.94,6,0,6,0.00
2013-10-5,86,77,72,76,72,71,96,87,68,29.99,29.84,10,0,10,0.13
2013-10-6,74,61,54,73,56,48,97,84,53,29.97,29.84,5,0,5,0.70
2013-10-7,69,57,49,57,51,47,96,81,59,30.10,29.94,6,0,6,0.00
2013-10-8,74,61,52,58,53,49,92,78,54,30.15,30.04,4,0,4,0.00
2013-10-9,78,65,56,70,60,52,95,86,71,30.13,30.04,6,0,6,0.00
2013-10-10,79,66,59,68,62,58,97,87,61,30.13,29.99,3,0,3,0.00
2013-10-11,82,68,58,68,62,57,98,84,54,30.04,29.93,6,0,6,0.00
2013-10-12,74,66,60,71,64,59,97,94,89,30.11,29.96,3,0,3,0.14
2013-10-13,79,68,62,69,64,56,98,86,68,30.24,30.10,3,0,3,0.00
2013-10-14,79,67,57,68,60,51,91,81,61,30.20,30.03,4,0,4,0.00
2013-10-15,69,67,66,67,65,64,97,93,85,30.04,29.92,5,0,5,0.58
2013-10-16,67,66,61,66,65,60,98,97,96,29.95,29.92,1,0,1,0.20
2013-10-17,57,53,52,54,51,50,95,92,85,30.01,29.98,0,0,0,0.04
2013-10-18,70,57,47,58,52,46,100,85,55,30.07,29.93,5,0,5,0.00
2013-10-19,58,52,44,56,49,43,96,88,65,30.07,29.90,4,0,4,0.01
2013-10-20,67,51,40,52,45,39,100,81,47,30.12,29.99,7,0,7,0.00
2013-10-21,72,56,45,56,50,43,95,81,48,30.07,29.96,7,0,7,0.02
2013-10-22,67,56,51,54,49,42,95,80,45,30.06,29.88,8,0,8,0.02
2013-10-23,60,50,44,49,43,39,92,76,51,30.16,29.94,6,0,6,0.00
2013-10-24,63,50,42,50,43,37,95,78,52,30.38,30.10,6,0,6,0.00
2013-10-25,56,43,34,37,34,31,91,72,43,30.53,30.33,4,0,4,0.00
2013-10-26,63,50,37,51,42,33,91,76,51,30.33,30.09,11,0,11,0.00
2013-10-27,65,58,53,59,55,50,95,90,78,30.10,30.00,4,0,4,0.00
2013-10-28,70,59,54,61,56,53,97,91,70,30.22,30.05,3,0,3,0.00
2013-10-29,74,64,54,67,61,53,97,91,75,30.23,30.09,8,0,8,0.00
2013-10-30,73,67,62,68,64,60,96,89,81,30.16,29.93,10,0,10,0.00
2013-10-31,70,67,61,68,64,54,97,92,65,29.94,29.53,20,1,20,0.95
2013-11-1,72,59,51,55,52,48,97,79,44,29.89,29.73,9,0,9,0.02
2013-11-2,61,52,44,52,45,41,95,80,56,30.20,29.87,5,0,5,0.00
2013-11-3,63,48,38,46,41,36,97,80,49,30.31,30.15,6,0,6,0.00
2013-11-4,65,53,43,51,46,40,91,78,53,30.29,30.18,9,0,9,0.00
2013-11-5,71,60,52,56,51,46,87,74,56,30.30,30.13,6,0,6,0.00
2013-11-6,61,57,46,60,52,42,97,86,70,30.25,30.02,11,0,11,0.28
2013-11-7,57,46,39,43,39,34,94,78,45,30.41,30.25,6,0,6,0.00
2013-11-8,63,47,34,45,39,32,100,75,38,30.39,30.21,5,0,5,0.00
2013-11-9,60,50,42,47,43,39,90,78,55,30.29,30.19,8,0,8,0.00
2013-11-10,69,54,45,50,44,40,96,73,42,30.35,30.25,4,0,4,0.00
2013-11-11,71,54,40,50,43,36,92,70,39,30.29,30.15,6,0,6,0.00
2013-11-12,56,41,31,50,32,23,88,71,48,30.67,30.21,9,1,9,0.00
2013-11-13,50,36,27,29,25,22,85,67,37,30.73,30.45,4,0,4,0.00
2013-11-14,58,41,27,30,26,22,90,60,27,30.45,30.16,9,0,9,0.00
2013-11-15,59,50,42,53,45,30,95,84,61,30.16,30.01,6,0,6,0.05
2013-11-16,68,61,53,65,58,51,97,92,84,30.04,29.84,15,0,15,0.00
2013-11-17,76,68,58,71,64,42,97,88,54,29.97,29.68,22,2,22,0.65
2013-11-18,65,54,46,45,39,32,86,57,33,30.25,29.96,6,0,6,0.00
2013-11-19,52,45,38,35,32,29,81,60,41,30.31,30.16,5,0,5,0.00
2013-11-20,63,48,35,43,37,30,86,68,44,30.19,30.06,8,0,8,0.00
2013-11-21,68,58,50,59,53,41,96,82,69,30.20,30.09,6,1,6,0.63
2013-11-22,59,52,44,58,51,40,98,94,90,30.39,30.13,7,1,7,0.44
2013-11-23,46,40,29,41,32,20,92,74,44,30.59,30.36,10,1,10,0.00
2013-11-24,37,29,23,21,19,16,77,66,49,30.67,30.44,8,1,8,0.00
2013-11-25,36,34,32,34,28,20,96,81,57,30.45,30.15,3,0,3,0.18
2013-11-26,40,36,33,37,34,25,96,90,71,30.15,29.95,10,1,10,0.05
2013-11-27,34,28,23,26,20,17,88,70,53,30.41,30.14,8,1,8,0.00
2013-11-28,47,32,20,27,22,18,91,69,41,30.49,30.39,9,0,9,0.00
2013-11-29,57,40,28,34,30,25,91,70,42,30.57,30.43,4,0,4,0.00
2013-11-30,56,44,29,34,31,27,93,63,36,30.44,30.21,11,0,11,0.00
2013-12-1,60,52,43,48,41,32,75,67,58,30.22,29.92,6,0,6,0.00
2013-12-2,61,55,49,54,50,43,95,82,74,29.92,29.71,5,0,5,0.00
2013-12-3,58,54,50,57,53,48,98,96,92,29.75,29.67,4,0,4,0.00
2013-12-4,76,67,57,64,62,56,98,85,67,29.80,29.66,17,2,17,0.00
2013-12-5,70,47,34,66,45,32,95,91,83,30.16,29.79,9,1,9,0.74
2013-12-6,34,31,25,32,29,24,95,94,93,30.47,30.07,8,1,8,0.64
2013-12-7,28,25,22,27,23,19,95,92,90,30.59,30.34,0,0,0,0.00
2013-12-8,33,31,28,32,30,27,97,96,95,30.37,30.07,0,0,0,0.18
2013-12-9,33,32,30,31,30,28,96,93,90,30.32,30.16,0,0,0,0.02
2013-12-10,41,30,23,33,27,21,95,87,73,30.45,30.21,5,0,5,0.03
2013-12-11,46,32,24,36,28,22,97,85,60,30.60,30.39,6,0,6,0.04
2013-12-12,44,30,21,25,21,17,88,71,41,30.64,30.41,5,0,5,0.01
2013-12-13,48,35,25,37,28,22,96,78,45,30.41,29.91,5,0,5,0.76
2013-12-14,43,40,35,42,38,32,97,92,85,30.15,29.79,10,2,10,0.59
2013-12-15,39,34,31,32,30,28,94,85,74,30.28,30.15,8,1,8,0.00
2013-12-16,59,45,31,40,36,30,95,73,48,30.21,30.10,9,2,16,0.00
2013-12-17,60,47,36,43,38,33,91,71,51,30.30,30.14,9,1,9,0.00
2013-12-18,59,44,31,39,33,29,94,69,35,30.35,30.11,8,1,8,0.00
2013-12-19,60,54,44,54,47,38,83,77,71,30.14,29.93,13,2,13,0.00
2013-12-20,68,64,60,64,60,54,96,87,79,29.95,29.78,14,2,14,0.06
2013-12-21,72,65,52,67,62,51,97,90,81,29.78,29.43,14,3,14,0.02
2013-12-22,55,48,37,52,46,32,97,91,82,30.24,29.69,12,1,12,0.00
2013-12-23,39,34,28,33,28,25,92,81,66,30.52,30.23,7,1,7,0.00
2013-12-24,36,28,24,26,20,16,94,74,51,30.64,30.43,6,0,6,0.12
2013-12-25,49,35,22,33,26,18,89,71,44,30.44,30.31,6,0,6,0.05
2013-12-26,49,37,28,34,29,26,96,75,48,30.45,30.35,5,0,5,0.01
2013-12-27,56,39,26,34,29,24,99,71,40,30.48,30.36,4,0,4,0.01
2013-12-28,47,40,33,41,35,29,96,82,67,30.36,29.98,1,0,4,0.00
2013-12-29,55,44,34,45,40,30,97,85,66,30.21,29.96,6,1,7,0.00
2013-12-30,34,31,27,30,26,23,86,82,78,30.37,30.20,5,0,5,0.00
2013-12-31,49,34,24,31,27,22,94,77,49,30.48,30.31,5,0,5,0.00
2014-1-1,54,41,27,43,33,25,95,77,47,30.32,29.94,8,1,8,0.01
2014-1-2,49,34,22,46,28,16,96,81,68,30.47,29.90,15,2,15,0.00